sensor_id;sensor_type;location;lat;lon;timestamp;pressure;altitude;pressure_sealevel;temperature;humidity
5996;BME280;3026;53.612;7.278;2022-08-02T00:00:54;101851.53;;;12.84;100.00
5996;BME280;3026;53.612;7.278;2022-08-02T00:03:20;101842.63;;;12.82;100.00
5996;BME280;3026;53.612;7.278;2022-08-02T00:05:47;101852.72;;;12.82;100.00
5996;BME280;3026;53.612;7.278;2022-08-02T00:08:14;101842.63;;;12.82;100.00
5996;BME280;3026;53.612;7.278;2022-08-02T00:10:41;101841.78;;;12.82;100.00
5996;BME280;3026;53.612;7.278;2022-08-02T00:13:09;101849.13;;;12.81;100.00
5996;BME280;3026;53.612;7.278;2022-08-02T00:15:36;101841.94;;;12.80;100.00
5996;BME280;3026;53.612;7.278;2022-08-02T00:18:03;101833.72;;;12.80;100.00
5996;BME280;3026;53.612;7.278;2022-08-02T00:20:30;101823.63;;;12.81;100.00
5996;BME280;3026;53.612;7.278;2022-08-02T00:22:57;101816.44;;;12.80;100.00
5996;BME280;3026;53.612;7.278;2022-08-02T00:25:23;101828.25;;;12.80;100.00
5996;BME280;3026;53.612;7.278;2022-08-02T00:27:50;101818.16;;;12.81;100.00
5996;BME280;3026;53.612;7.278;2022-08-02T00:30:18;101824.66;;;12.80;100.00
5996;BME280;3026;53.612;7.278;2022-08-02T00:32:45;101839.19;;;12.80;100.00
5996;BME280;3026;53.612;7.278;2022-08-02T00:35:12;101842.97;;;12.79;100.00
5996;BME280;3026;53.612;7.278;2022-08-02T00:37:39;101837.81;;;12.76;100.00
5996;BME280;3026;53.612;7.278;2022-08-02T00:40:07;101836.97;;;12.76;100.00
5996;BME280;3026;53.612;7.278;2022-08-02T00:42:34;101839.88;;;12.74;100.00
5996;BME280;3026;53.612;7.278;2022-08-02T00:45:01;101834.41;;;12.74;100.00
5996;BME280;3026;53.612;7.278;2022-08-02T00:47:29;101836.09;;;12.75;100.00
5996;BME280;3026;53.612;7.278;2022-08-02T00:49:56;101837.81;;;12.76;100.00
5996;BME280;3026;53.612;7.278;2022-08-02T00:52:23;101839.88;;;12.74;100.00
5996;BME280;3026;53.612;7.278;2022-08-02T00:54:50;101836.09;;;12.75;100.00
5996;BME280;3026;53.612;7.278;2022-08-02T00:57:17;101840.72;;;12.75;100.00
5996;BME280;3026;53.612;7.278;2022-08-02T00:59:44;101838.13;;;12.73;100.00
5996;BME280;3026;53.612;7.278;2022-08-02T01:02:11;101844.50;;;12.74;100.00
5996;BME280;3026;53.612;7.278;2022-08-02T01:04:40;101847.34;;;12.72;100.00
5996;BME280;3026;53.612;7.278;2022-08-02T01:07:06;101843.94;;;12.70;100.00
5996;BME280;3026;53.612;7.278;2022-08-02T01:09:33;101829.56;;;12.68;100.00
5996;BME280;3026;53.612;7.278;2022-08-02T01:12:00;101833.47;;;12.66;100.00
5996;BME280;3026;53.612;7.278;2022-08-02T01:14:27;101830.22;;;12.62;100.00
5996;BME280;3026;53.612;7.278;2022-08-02T01:17:00;101835.69;;;12.62;100.00
5996;BME280;3026;53.612;7.278;2022-08-02T01:19:35;101819.56;;;12.59;100.00
5996;BME280;3026;53.612;7.278;2022-08-02T01:25:27;101811.00;;;12.54;100.00
5996;BME280;3026;53.612;7.278;2022-08-02T01:28:09;101818.53;;;12.52;100.00
5996;BME280;3026;53.612;7.278;2022-08-02T01:30:43;101809.47;;;12.51;100.00
5996;BME280;3026;53.612;7.278;2022-08-02T01:33:15;101811.34;;;12.51;100.00
5996;BME280;3026;53.612;7.278;2022-08-02T01:35:44;101804.47;;;12.47;100.00
5996;BME280;3026;53.612;7.278;2022-08-02T01:38:22;101802.06;;;12.44;100.00
5996;BME280;3026;53.612;7.278;2022-08-02T01:40:52;101801.38;;;12.42;100.00
5996;BME280;3026;53.612;7.278;2022-08-02T01:43:23;101803.41;;;12.40;100.00
5996;BME280;3026;53.612;7.278;2022-08-02T01:45:53;101803.72;;;12.37;100.00
5996;BME280;3026;53.612;7.278;2022-08-02T01:48:22;101799.09;;;12.37;100.00
5996;BME280;3026;53.612;7.278;2022-08-02T01:50:50;101804.56;;;12.37;100.00
5996;BME280;3026;53.612;7.278;2022-08-02T01:53:19;101796.53;;;12.36;100.00
5996;BME280;3026;53.612;7.278;2022-08-02T01:55:49;101789.34;;;12.35;100.00
5996;BME280;3026;53.612;7.278;2022-08-02T01:58:19;101789.66;;;12.32;100.00
5996;BME280;3026;53.612;7.278;2022-08-02T02:00:52;101786.94;;;12.32;100.00
5996;BME280;3026;53.612;7.278;2022-08-02T02:03:22;101773.44;;;12.30;100.00
5996;BME280;3026;53.612;7.278;2022-08-02T02:05:52;101782.81;;;12.27;100.00
5996;BME280;3026;53.612;7.278;2022-08-02T02:08:25;101784.84;;;12.25;100.00
5996;BME280;3026;53.612;7.278;2022-08-02T02:10:54;101784.84;;;12.25;100.00
5996;BME280;3026;53.612;7.278;2022-08-02T02:13:24;101777.66;;;12.24;100.00
5996;BME280;3026;53.612;7.278;2022-08-02T02:15:53;101784.13;;;12.23;100.00
5996;BME280;3026;53.612;7.278;2022-08-02T02:18:24;101791.47;;;12.23;100.00
5996;BME280;3026;53.612;7.278;2022-08-02T02:20:52;101788.91;;;12.21;100.00
5996;BME280;3026;53.612;7.278;2022-08-02T02:23:19;101790.97;;;12.19;100.00
5996;BME280;3026;53.612;7.278;2022-08-02T02:25:47;101783.22;;;12.15;100.00
5996;BME280;3026;53.612;7.278;2022-08-02T02:28:19;101771.75;;;12.11;100.00
5996;BME280;3026;53.612;7.278;2022-08-02T02:30:50;101768.31;;;12.09;100.00
5996;BME280;3026;53.612;7.278;2022-08-02T02:33:20;101766.63;;;12.08;100.00
5996;BME280;3026;53.612;7.278;2022-08-02T02:35:49;101753.81;;;12.09;100.00
5996;BME280;3026;53.612;7.278;2022-08-02T02:38:18;101739.28;;;12.08;100.00
5996;BME280;3026;53.612;7.278;2022-08-02T02:40:46;101743.88;;;12.08;100.00
5996;BME280;3026;53.612;7.278;2022-08-02T02:43:14;101732.09;;;12.07;100.00
5996;BME280;3026;53.612;7.278;2022-08-02T02:45:43;101735.84;;;12.06;100.00
5996;BME280;3026;53.612;7.278;2022-08-02T02:48:12;101725.22;;;12.03;100.00
5996;BME280;3026;53.612;7.278;2022-08-02T02:50:42;101729.81;;;12.03;100.00
5996;BME280;3026;53.612;7.278;2022-08-02T02:53:09;101729.81;;;12.03;100.00
5996;BME280;3026;53.612;7.278;2022-08-02T02:55:37;101738.19;;;12.01;100.00
5996;BME280;3026;53.612;7.278;2022-08-02T02:58:04;101732.03;;;11.99;100.00
5996;BME280;3026;53.612;7.278;2022-08-02T03:00:33;101726.72;;;11.97;100.00
5996;BME280;3026;53.612;7.278;2022-08-02T03:03:17;101724.50;;;11.93;100.00
5996;BME280;3026;53.612;7.278;2022-08-02T03:05:45;101729.94;;;11.93;100.00
5996;BME280;3026;53.612;7.278;2022-08-02T03:08:12;101731.09;;;11.90;100.00
5996;BME280;3026;53.612;7.278;2022-08-02T03:10:39;101733.84;;;11.90;100.00
5996;BME280;3026;53.612;7.278;2022-08-02T03:13:07;101741.88;;;11.92;100.00
5996;BME280;3026;53.612;7.278;2022-08-02T03:15:35;101733.66;;;11.92;100.00
5996;BME280;3026;53.612;7.278;2022-08-02T03:18:03;101729.94;;;11.93;100.00
5996;BME280;3026;53.612;7.278;2022-08-02T03:20:32;101731.97;;;11.91;100.00
5996;BME280;3026;53.612;7.278;2022-08-02T03:23:00;101735.72;;;11.90;100.00
5996;BME280;3026;53.612;7.278;2022-08-02T03:25:27;101727.69;;;11.88;100.00
5996;BME280;3026;53.612;7.278;2022-08-02T03:27:54;101726.81;;;11.88;100.00
5996;BME280;3026;53.612;7.278;2022-08-02T03:30:21;101724.78;;;11.90;100.00
5996;BME280;3026;53.612;7.278;2022-08-02T03:32:51;101717.59;;;11.89;100.00
5996;BME280;3026;53.612;7.278;2022-08-02T03:35:18;101716.91;;;11.87;100.00
5996;BME280;3026;53.612;7.278;2022-08-02T03:37:46;101714.50;;;11.84;100.00
5996;BME280;3026;53.612;7.278;2022-08-02T03:40:16;101709.34;;;11.81;100.00
5996;BME280;3026;53.612;7.278;2022-08-02T03:42:43;101713.09;;;11.80;100.00
5996;BME280;3026;53.612;7.278;2022-08-02T03:45:11;101708.63;;;11.79;100.00
5996;BME280;3026;53.612;7.278;2022-08-02T03:47:39;101709.63;;;11.78;100.00
5996;BME280;3026;53.612;7.278;2022-08-02T03:50:10;101709.97;;;11.75;100.00
5996;BME280;3026;53.612;7.278;2022-08-02T03:52:39;101709.97;;;11.75;100.00
5996;BME280;3026;53.612;7.278;2022-08-02T03:55:07;101710.81;;;11.75;100.00
5996;BME280;3026;53.612;7.278;2022-08-02T03:57:38;101714.41;;;11.76;100.00
5996;BME280;3026;53.612;7.278;2022-08-02T04:00:07;101709.97;;;11.75;100.00
5996;BME280;3026;53.612;7.278;2022-08-02T04:02:34;101708.25;;;11.74;100.00
5996;BME280;3026;53.612;7.278;2022-08-02T04:05:01;101704.50;;;11.75;100.00
5996;BME280;3026;53.612;7.278;2022-08-02T04:07:28;101696.28;;;11.75;100.00
5996;BME280;3026;53.612;7.278;2022-08-02T04:09:55;101695.97;;;11.78;100.00
5996;BME280;3026;53.612;7.278;2022-08-02T04:12:22;101700.28;;;11.80;100.00
5996;BME280;3026;53.612;7.278;2022-08-02T04:14:50;101698.13;;;11.84;100.00
5996;BME280;3026;53.612;7.278;2022-08-02T04:17:19;101688.91;;;11.85;100.00
5996;BME280;3026;53.612;7.278;2022-08-02T04:19:49;101685.84;;;11.88;100.00
5996;BME280;3026;53.612;7.278;2022-08-02T04:22:22;101686.53;;;11.90;100.00
5996;BME280;3026;53.612;7.278;2022-08-02T04:24:54;101683.63;;;11.91;100.00
5996;BME280;3026;53.612;7.278;2022-08-02T04:27:23;101674.28;;;11.94;100.00
5996;BME280;3026;53.612;7.278;2022-08-02T04:29:52;101670.19;;;11.98;100.00
5996;BME280;3026;53.612;7.278;2022-08-02T04:32:21;101665.06;;;12.03;100.00
5996;BME280;3026;53.612;7.278;2022-08-02T04:34:48;101664.78;;;12.06;100.00
5996;BME280;3026;53.612;7.278;2022-08-02T04:37:15;101674.53;;;12.09;100.00
5996;BME280;3026;53.612;7.278;2022-08-02T04:39:43;101678.47;;;12.14;100.00
5996;BME280;3026;53.612;7.278;2022-08-02T04:42:09;101672.53;;;12.19;100.00
5996;BME280;3026;53.612;7.278;2022-08-02T04:44:36;101675.44;;;12.25;100.00
5996;BME280;3026;53.612;7.278;2022-08-02T04:47:04;101678.56;;;12.31;100.00
5996;BME280;3026;53.612;7.278;2022-08-02T04:49:32;101677.91;;;12.37;100.00
5996;BME280;3026;53.612;7.278;2022-08-02T04:51:58;101670.94;;;12.42;100.00
5996;BME280;3026;53.612;7.278;2022-08-02T04:54:26;101665.81;;;12.47;100.00
5996;BME280;3026;53.612;7.278;2022-08-02T04:56:52;101665.34;;;12.52;100.00
5996;BME280;3026;53.612;7.278;2022-08-02T04:59:19;101673.03;;;12.56;100.00
5996;BME280;3026;53.612;7.278;2022-08-02T05:01:46;101684.50;;;12.60;100.00
5996;BME280;3026;53.612;7.278;2022-08-02T05:04:14;101691.19;;;12.66;100.00
5996;BME280;3026;53.612;7.278;2022-08-02T05:06:41;101692.41;;;12.71;100.00
5996;BME280;3026;53.612;7.278;2022-08-02T05:09:08;101694.81;;;12.74;100.00
5996;BME280;3026;53.612;7.278;2022-08-02T05:11:35;101691.41;;;12.80;100.00
5996;BME280;3026;53.612;7.278;2022-08-02T05:14:02;101676.34;;;12.84;100.00
5996;BME280;3026;53.612;7.278;2022-08-02T05:16:29;101673.31;;;12.88;100.00
5996;BME280;3026;53.612;7.278;2022-08-02T05:18:56;101676.56;;;12.91;100.00
5996;BME280;3026;53.612;7.278;2022-08-02T05:21:24;101680.84;;;12.94;100.00
5996;BME280;3026;53.612;7.278;2022-08-02T05:23:51;101684.25;;;12.96;100.00
5996;BME280;3026;53.612;7.278;2022-08-02T05:26:18;101688.72;;;12.97;100.00
5996;BME280;3026;53.612;7.278;2022-08-02T05:28:45;101685.66;;;13.00;100.00
5996;BME280;3026;53.612;7.278;2022-08-02T05:31:12;101678.81;;;13.04;100.00
5996;BME280;3026;53.612;7.278;2022-08-02T05:33:39;101669.22;;;13.08;100.00
5996;BME280;3026;53.612;7.278;2022-08-02T05:36:06;101664.09;;;13.13;100.00
5996;BME280;3026;53.612;7.278;2022-08-02T05:38:35;101657.25;;;13.17;100.00
5996;BME280;3026;53.612;7.278;2022-08-02T05:41:02;101678.72;;;13.22;100.00
5996;BME280;3026;53.612;7.278;2022-08-02T05:43:29;101676.81;;;13.30;100.00
5996;BME280;3026;53.612;7.278;2022-08-02T05:45:55;101669.63;;;13.37;100.00
5996;BME280;3026;53.612;7.278;2022-08-02T05:48:22;101667.94;;;13.45;100.00
5996;BME280;3026;53.612;7.278;2022-08-02T05:50:54;101677.16;;;13.52;100.00
5996;BME280;3026;53.612;7.278;2022-08-02T05:53:26;101672.03;;;13.57;100.00
5996;BME280;3026;53.612;7.278;2022-08-02T05:56:02;101660.38;;;13.63;100.00
5996;BME280;3026;53.612;7.278;2022-08-02T05:58:39;101655.25;;;13.68;100.00
5996;BME280;3026;53.612;7.278;2022-08-02T06:01:11;101655.38;;;13.75;100.00
5996;BME280;3026;53.612;7.278;2022-08-02T06:03:46;101658.31;;;13.81;100.00
5996;BME280;3026;53.612;7.278;2022-08-02T06:06:19;101652.81;;;13.89;100.00
5996;BME280;3026;53.612;7.278;2022-08-02T06:08:50;101663.75;;;13.97;100.00
5996;BME280;3026;53.612;7.278;2022-08-02T06:11:22;101669.03;;;14.07;100.00
5996;BME280;3026;53.612;7.278;2022-08-02T06:13:49;101674.31;;;14.17;100.00
5996;BME280;3026;53.612;7.278;2022-08-02T06:16:18;101669.69;;;14.25;100.00
5996;BME280;3026;53.612;7.278;2022-08-02T06:18:45;101662.09;;;14.36;100.00
5996;BME280;3026;53.612;7.278;2022-08-02T06:21:13;101656.41;;;14.45;100.00
5996;BME280;3026;53.612;7.278;2022-08-02T06:23:41;101659.13;;;14.53;100.00
5996;BME280;3026;53.612;7.278;2022-08-02T06:26:10;101649.16;;;14.61;100.00
5996;BME280;3026;53.612;7.278;2022-08-02T06:28:40;101637.78;;;14.72;100.00
5996;BME280;3026;53.612;7.278;2022-08-02T06:31:07;101638.41;;;14.82;100.00
5996;BME280;3026;53.612;7.278;2022-08-02T06:33:34;101627.34;;;14.90;100.00
5996;BME280;3026;53.612;7.278;2022-08-02T06:36:03;101632.22;;;15.03;100.00
5996;BME280;3026;53.612;7.278;2022-08-02T06:38:40;101627.16;;;15.14;100.00
5996;BME280;3026;53.612;7.278;2022-08-02T06:41:08;101622.09;;;15.26;100.00
5996;BME280;3026;53.612;7.278;2022-08-02T06:43:46;101617.69;;;15.40;100.00
5996;BME280;3026;53.612;7.278;2022-08-02T06:46:16;101621.72;;;15.52;100.00
5996;BME280;3026;53.612;7.278;2022-08-02T06:48:42;101624.03;;;15.63;100.00
5996;BME280;3026;53.612;7.278;2022-08-02T06:51:09;101623.59;;;15.74;100.00
5996;BME280;3026;53.612;7.278;2022-08-02T06:53:36;101630.34;;;15.87;100.00
5996;BME280;3026;53.612;7.278;2022-08-02T06:56:03;101632.22;;;16.01;100.00
5996;BME280;3026;53.612;7.278;2022-08-02T06:58:30;101628.63;;;16.15;100.00
5996;BME280;3026;53.612;7.278;2022-08-02T07:00:58;101627.94;;;16.28;100.00
5996;BME280;3026;53.612;7.278;2022-08-02T07:03:25;101627.66;;;16.38;100.00
5996;BME280;3026;53.612;7.278;2022-08-02T07:05:52;101628.66;;;16.51;100.00
5996;BME280;3026;53.612;7.278;2022-08-02T07:08:19;101630.72;;;16.64;100.00
5996;BME280;3026;53.612;7.278;2022-08-02T07:10:47;101620.59;;;16.79;100.00
5996;BME280;3026;53.612;7.278;2022-08-02T07:13:13;101624.13;;;16.95;100.00
5996;BME280;3026;53.612;7.278;2022-08-02T07:15:41;101623.88;;;17.11;100.00
5996;BME280;3026;53.612;7.278;2022-08-02T07:18:09;101622.78;;;17.27;100.00
5996;BME280;3026;53.612;7.278;2022-08-02T07:20:39;101623.34;;;17.43;100.00
5996;BME280;3026;53.612;7.278;2022-08-02T07:23:06;101626.84;;;17.59;100.00
5996;BME280;3026;53.612;7.278;2022-08-02T07:25:33;101625.66;;;17.68;100.00
5996;BME280;3026;53.612;7.278;2022-08-02T07:28:00;101620.66;;;17.78;100.00
5996;BME280;3026;53.612;7.278;2022-08-02T07:30:27;101617.59;;;17.94;100.00
5996;BME280;3026;53.612;7.278;2022-08-02T07:32:56;101620.25;;;18.09;100.00
5996;BME280;3026;53.612;7.278;2022-08-02T07:35:24;101617.13;;;18.19;100.00
5996;BME280;3026;53.612;7.278;2022-08-02T07:37:51;101612.06;;;18.29;100.00
5996;BME280;3026;53.612;7.278;2022-08-02T07:40:19;101615.53;;;18.44;100.00
5996;BME280;3026;53.612;7.278;2022-08-02T07:42:47;101622.81;;;18.58;100.00
5996;BME280;3026;53.612;7.278;2022-08-02T07:45:16;101618.56;;;18.62;100.00
5996;BME280;3026;53.612;7.278;2022-08-02T07:47:44;101604.63;;;18.71;100.00
5996;BME280;3026;53.612;7.278;2022-08-02T07:50:12;101608.47;;;18.83;100.00
5996;BME280;3026;53.612;7.278;2022-08-02T07:52:41;101608.94;;;18.93;100.00
5996;BME280;3026;53.612;7.278;2022-08-02T07:55:10;101608.09;;;19.06;100.00
5996;BME280;3026;53.612;7.278;2022-08-02T07:57:38;101602.38;;;19.20;100.00
5996;BME280;3026;53.612;7.278;2022-08-02T08:00:07;101608.56;;;19.36;100.00
5996;BME280;3026;53.612;7.278;2022-08-02T08:02:34;101597.94;;;19.46;100.00
5996;BME280;3026;53.612;7.278;2022-08-02T08:05:02;101598.38;;;19.56;100.00
5996;BME280;3026;53.612;7.278;2022-08-02T08:07:31;101592.63;;;19.71;100.00
5996;BME280;3026;53.612;7.278;2022-08-02T08:09:59;101589.41;;;19.87;100.00
5996;BME280;3026;53.612;7.278;2022-08-02T08:12:26;101586.63;;;19.94;100.00
5996;BME280;3026;53.612;7.278;2022-08-02T08:14:53;101593.22;;;19.99;100.00
5996;BME280;3026;53.612;7.278;2022-08-02T08:17:23;101592.75;;;20.09;100.00
5996;BME280;3026;53.612;7.278;2022-08-02T08:19:50;101592.72;;;20.22;100.00
5996;BME280;3026;53.612;7.278;2022-08-02T08:22:17;101588.81;;;20.36;100.00
5996;BME280;3026;53.612;7.278;2022-08-02T08:24:44;101590.53;;;20.51;100.00
5996;BME280;3026;53.612;7.278;2022-08-02T08:27:12;101580.84;;;20.66;100.00
5996;BME280;3026;53.612;7.278;2022-08-02T08:29:40;101579.28;;;20.77;100.00
5996;BME280;3026;53.612;7.278;2022-08-02T08:32:07;101586.91;;;20.88;100.00
5996;BME280;3026;53.612;7.278;2022-08-02T08:34:34;101589.81;;;21.00;100.00
5996;BME280;3026;53.612;7.278;2022-08-02T08:37:00;101598.44;;;21.17;100.00
5996;BME280;3026;53.612;7.278;2022-08-02T08:39:28;101580.00;;;21.29;100.00
5996;BME280;3026;53.612;7.278;2022-08-02T08:41:55;101575.13;;;21.31;100.00
5996;BME280;3026;53.612;7.278;2022-08-02T08:44:23;101575.91;;;21.38;100.00
5996;BME280;3026;53.612;7.278;2022-08-02T08:46:53;101569.00;;;21.47;100.00
5996;BME280;3026;53.612;7.278;2022-08-02T08:49:25;101571.63;;;21.61;100.00
5996;BME280;3026;53.612;7.278;2022-08-02T08:51:54;101575.34;;;21.73;100.00
5996;BME280;3026;53.612;7.278;2022-08-02T08:54:23;101574.03;;;21.75;100.00
5996;BME280;3026;53.612;7.278;2022-08-02T08:56:53;101573.53;;;21.85;100.00
5996;BME280;3026;53.612;7.278;2022-08-02T08:59:23;101576.72;;;21.89;100.00
5996;BME280;3026;53.612;7.278;2022-08-02T09:01:51;101581.72;;;21.98;100.00
5996;BME280;3026;53.612;7.278;2022-08-02T09:04:19;101583.59;;;22.04;100.00
5996;BME280;3026;53.612;7.278;2022-08-02T09:06:46;101567.88;;;22.17;100.00
5996;BME280;3026;53.612;7.278;2022-08-02T09:09:13;101576.75;;;22.25;100.00
5996;BME280;3026;53.612;7.278;2022-08-02T09:11:41;101565.09;;;22.35;100.00
5996;BME280;3026;53.612;7.278;2022-08-02T09:14:07;101561.84;;;22.38;100.00
5996;BME280;3026;53.612;7.278;2022-08-02T09:16:37;101560.28;;;22.42;100.00
5996;BME280;3026;53.612;7.278;2022-08-02T09:19:17;101555.19;;;22.39;100.00
5996;BME280;3026;53.612;7.278;2022-08-02T09:21:44;101545.78;;;22.40;100.00
5996;BME280;3026;53.612;7.278;2022-08-02T09:24:16;101552.13;;;22.47;100.00
5996;BME280;3026;53.612;7.278;2022-08-02T09:26:44;101549.00;;;22.55;100.00
5996;BME280;3026;53.612;7.278;2022-08-02T09:29:11;101543.22;;;22.68;100.00
5996;BME280;3026;53.612;7.278;2022-08-02T09:31:40;101546.59;;;22.89;100.00
5996;BME280;3026;53.612;7.278;2022-08-02T09:34:07;101549.19;;;23.02;100.00
5996;BME280;3026;53.612;7.278;2022-08-02T09:36:39;101555.84;;;23.13;100.00
5996;BME280;3026;53.612;7.278;2022-08-02T09:39:07;101560.34;;;23.25;100.00
5996;BME280;3026;53.612;7.278;2022-08-02T09:41:36;101565.94;;;23.49;100.00
5996;BME280;3026;53.612;7.278;2022-08-02T09:44:04;101563.84;;;23.74;100.00
5996;BME280;3026;53.612;7.278;2022-08-02T09:46:33;101563.81;;;23.98;100.00
5996;BME280;3026;53.612;7.278;2022-08-02T09:49:05;101573.00;;;24.10;100.00
5996;BME280;3026;53.612;7.278;2022-08-02T09:51:34;101567.28;;;24.16;100.00
5996;BME280;3026;53.612;7.278;2022-08-02T09:54:03;101564.88;;;24.32;99.26
5996;BME280;3026;53.612;7.278;2022-08-02T09:56:43;101567.25;;;24.40;94.16
5996;BME280;3026;53.612;7.278;2022-08-02T09:59:10;101553.56;;;24.38;94.24
5996;BME280;3026;53.612;7.278;2022-08-02T10:01:37;101562.63;;;24.46;94.06
5996;BME280;3026;53.612;7.278;2022-08-02T10:04:07;101553.28;;;24.52;93.07
5996;BME280;3026;53.612;7.278;2022-08-02T10:06:36;101556.31;;;24.50;92.69
5996;BME280;3026;53.612;7.278;2022-08-02T10:09:04;101547.22;;;24.55;91.79
5996;BME280;3026;53.612;7.278;2022-08-02T10:11:31;101541.66;;;24.55;90.66
5996;BME280;3026;53.612;7.278;2022-08-02T10:13:59;101532.66;;;24.53;90.40
5996;BME280;3026;53.612;7.278;2022-08-02T10:16:28;101522.81;;;24.62;89.24
5996;BME280;3026;53.612;7.278;2022-08-02T10:18:55;101527.69;;;24.83;88.10
5996;BME280;3026;53.612;7.278;2022-08-02T10:21:30;101519.25;;;24.95;87.04
5996;BME280;3026;53.612;7.278;2022-08-02T10:24:04;101525.16;;;24.98;86.99
5996;BME280;3026;53.612;7.278;2022-08-02T10:26:31;101521.84;;;25.13;85.13
5996;BME280;3026;53.612;7.278;2022-08-02T10:28:59;101515.91;;;25.26;85.66
5996;BME280;3026;53.612;7.278;2022-08-02T10:31:30;101515.56;;;25.40;84.72
5996;BME280;3026;53.612;7.278;2022-08-02T10:34:00;101517.75;;;25.54;82.28
5996;BME280;3026;53.612;7.278;2022-08-02T10:36:30;101519.25;;;25.62;82.12
5996;BME280;3026;53.612;7.278;2022-08-02T10:39:00;101511.47;;;25.64;83.06
5996;BME280;3026;53.612;7.278;2022-08-02T10:41:44;101501.38;;;25.80;84.68
5996;BME280;3026;53.612;7.278;2022-08-02T10:44:25;101502.09;;;25.92;81.83
5996;BME280;3026;53.612;7.278;2022-08-02T10:47:19;101497.19;;;25.99;79.93
5996;BME280;3026;53.612;7.278;2022-08-02T10:49:51;101499.53;;;26.07;80.48
5996;BME280;3026;53.612;7.278;2022-08-02T10:52:20;101491.84;;;26.20;80.06
5996;BME280;3026;53.612;7.278;2022-08-02T10:54:58;101493.09;;;26.29;79.60
5996;BME280;3026;53.612;7.278;2022-08-02T10:57:27;101492.97;;;26.18;78.74
5996;BME280;3026;53.612;7.278;2022-08-02T10:59:56;101481.56;;;26.03;77.80
5996;BME280;3026;53.612;7.278;2022-08-02T11:02:38;101481.97;;;25.90;76.21
5996;BME280;3026;53.612;7.278;2022-08-02T11:05:08;101478.44;;;25.78;78.76
5996;BME280;3026;53.612;7.278;2022-08-02T11:07:38;101477.81;;;25.71;79.04
5996;BME280;3026;53.612;7.278;2022-08-02T11:13:11;101483.38;;;25.54;79.77
5996;BME280;3026;53.612;7.278;2022-08-02T11:15:56;101476.91;;;25.48;77.22
5996;BME280;3026;53.612;7.278;2022-08-02T11:21:32;101468.69;;;25.58;79.85
5996;BME280;3026;53.612;7.278;2022-08-02T11:24:25;101467.47;;;25.54;77.99
5996;BME280;3026;53.612;7.278;2022-08-02T11:26:53;101470.78;;;25.51;78.75
5996;BME280;3026;53.612;7.278;2022-08-02T11:29:20;101471.38;;;25.53;79.23
5996;BME280;3026;53.612;7.278;2022-08-02T11:31:47;101474.16;;;25.53;78.13
5996;BME280;3026;53.612;7.278;2022-08-02T11:34:15;101476.28;;;25.46;77.77
5996;BME280;3026;53.612;7.278;2022-08-02T11:36:47;101474.59;;;25.45;77.26
5996;BME280;3026;53.612;7.278;2022-08-02T11:39:15;101479.22;;;25.56;77.59
5996;BME280;3026;53.612;7.278;2022-08-02T11:41:48;101471.47;;;25.58;78.17
5996;BME280;3026;53.612;7.278;2022-08-02T11:44:16;101472.03;;;25.60;78.74
5996;BME280;3026;53.612;7.278;2022-08-02T11:46:43;101466.19;;;25.62;77.52
5996;BME280;3026;53.612;7.278;2022-08-02T11:49:12;101477.16;;;25.69;78.32
5996;BME280;3026;53.612;7.278;2022-08-02T11:51:49;101476.31;;;25.68;77.46
5996;BME280;3026;53.612;7.278;2022-08-02T11:54:26;101469.44;;;25.71;78.69
5996;BME280;3026;53.612;7.278;2022-08-02T11:56:54;101480.66;;;25.76;78.86
5996;BME280;3026;53.612;7.278;2022-08-02T11:59:21;101467.81;;;25.75;79.99
5996;BME280;3026;53.612;7.278;2022-08-02T12:01:47;101468.31;;;25.72;79.17
5996;BME280;3026;53.612;7.278;2022-08-02T12:04:16;101461.50;;;25.68;79.55
5996;BME280;3026;53.612;7.278;2022-08-02T12:06:52;101473.22;;;25.65;79.37
5996;BME280;3026;53.612;7.278;2022-08-02T12:09:19;101467.03;;;25.63;80.34
5996;BME280;3026;53.612;7.278;2022-08-02T12:11:47;101463.66;;;25.60;81.23
5996;BME280;3026;53.612;7.278;2022-08-02T12:14:17;101468.16;;;25.62;81.30
5996;BME280;3026;53.612;7.278;2022-08-02T12:16:44;101461.19;;;25.64;81.74
5996;BME280;3026;53.612;7.278;2022-08-02T12:19:30;101459.00;;;25.66;83.30
5996;BME280;3026;53.612;7.278;2022-08-02T12:22:11;101472.22;;;25.71;83.44
5996;BME280;3026;53.612;7.278;2022-08-02T12:24:39;101471.13;;;25.72;82.70
5996;BME280;3026;53.612;7.278;2022-08-02T12:27:07;101466.63;;;25.71;83.82
5996;BME280;3026;53.612;7.278;2022-08-02T12:29:36;101459.34;;;25.70;83.82
5996;BME280;3026;53.612;7.278;2022-08-02T12:32:04;101457.16;;;25.72;84.79
5996;BME280;3026;53.612;7.278;2022-08-02T12:34:32;101461.69;;;25.78;86.18
5996;BME280;3026;53.612;7.278;2022-08-02T12:37:02;101475.22;;;25.86;85.63
5996;BME280;3026;53.612;7.278;2022-08-02T12:39:34;101457.41;;;25.92;83.60
5996;BME280;3026;53.612;7.278;2022-08-02T12:42:01;101459.75;;;26.00;84.00
5996;BME280;3026;53.612;7.278;2022-08-02T12:44:28;101448.03;;;26.03;84.36
5996;BME280;3026;53.612;7.278;2022-08-02T12:47:01;101453.13;;;26.06;83.74
5996;BME280;3026;53.612;7.278;2022-08-02T12:49:29;101460.91;;;26.04;83.24
5996;BME280;3026;53.612;7.278;2022-08-02T12:51:56;101451.94;;;26.02;84.18
5996;BME280;3026;53.612;7.278;2022-08-02T12:54:25;101450.25;;;26.01;84.53
5996;BME280;3026;53.612;7.278;2022-08-02T12:56:52;101445.19;;;25.98;84.96
5996;BME280;3026;53.612;7.278;2022-08-02T12:59:33;101451.31;;;25.95;85.51
5996;BME280;3026;53.612;7.278;2022-08-02T13:02:03;101450.22;;;25.96;86.40
5996;BME280;3026;53.612;7.278;2022-08-02T13:04:31;101447.91;;;25.93;87.02
5996;BME280;3026;53.612;7.278;2022-08-02T13:06:57;101450.13;;;25.91;86.75
5996;BME280;3026;53.612;7.278;2022-08-02T13:09:24;101446.75;;;25.89;87.30
5996;BME280;3026;53.612;7.278;2022-08-02T13:11:51;101445.06;;;25.88;87.03
5996;BME280;3026;53.612;7.278;2022-08-02T13:14:18;101443.38;;;25.87;87.10
5996;BME280;3026;53.612;7.278;2022-08-02T13:16:45;101438.81;;;25.81;86.68
5996;BME280;3026;53.612;7.278;2022-08-02T13:19:15;101436.56;;;25.78;87.44
5996;BME280;3026;53.612;7.278;2022-08-02T13:21:43;101437.66;;;25.77;88.19